Los Angeles, California
Traffic Map
Current Weather Conditions
Los Angeles, California
Clear
Clear
21°
Feels Like: 21°
Wind Chill: 21° Ceiling: Unl
Heat Index: 21° Visibility: 10mi
Dew Point: 17° Wind: 0mph
Humidity: 78% Direction: ° ()
Pressure: 29.89in Gusts: 0mph
Raw Report DataKCQT 011247Z AUTO 00000KT 10SM CLR 21/17 A2989 RMK AO2 SLP118 T02110172
Traffic Incident Summary
Active as of:
Severity:
Category:
InformationThere was an issue retrieving the traffic information for this location. Please try a different location or try again shortly.
Advertisements
Track Severe Weather on mobile